sensor_id;sensor_type;location;lat;lon;timestamp;P1;durP1;ratioP1;P2;durP2;ratioP2
21802;SDS011;18591;47.080;22.214;2022-09-27T00:01:01;73.80;;;44.60;;
21802;SDS011;18591;47.080;22.214;2022-09-27T00:03:11;85.25;;;51.72;;
21802;SDS011;18591;47.080;22.214;2022-09-27T00:05:14;112.28;;;62.38;;
21802;SDS011;18591;47.080;22.214;2022-09-27T00:07:20;113.22;;;63.10;;
21802;SDS011;18591;47.080;22.214;2022-09-27T00:09:23;103.80;;;57.30;;
21802;SDS011;18591;47.080;22.214;2022-09-27T00:11:29;91.70;;;51.78;;
21802;SDS011;18591;47.080;22.214;2022-09-27T00:13:35;67.07;;;40.53;;
21802;SDS011;18591;47.080;22.214;2022-09-27T00:15:37;46.88;;;32.13;;
21802;SDS011;18591;47.080;22.214;2022-09-27T00:17:42;42.08;;;28.75;;
21802;SDS011;18591;47.080;22.214;2022-09-27T00:19:45;70.88;;;40.67;;
21802;SDS011;18591;47.080;22.214;2022-09-27T00:21:47;382.23;;;148.13;;
21802;SDS011;18591;47.080;22.214;2022-09-27T00:23:53;635.85;;;291.25;;
21802;SDS011;18591;47.080;22.214;2022-09-27T00:25:56;557.53;;;270.85;;
21802;SDS011;18591;47.080;22.214;2022-09-27T00:27:59;479.75;;;232.50;;
21802;SDS011;18591;47.080;22.214;2022-09-27T00:30:02;426.77;;;212.63;;
21802;SDS011;18591;47.080;22.214;2022-09-27T00:32:05;338.52;;;171.05;;
21802;SDS011;18591;47.080;22.214;2022-09-27T00:34:10;185.60;;;98.45;;
21802;SDS011;18591;47.080;22.214;2022-09-27T00:36:26;143.18;;;78.53;;
21802;SDS011;18591;47.080;22.214;2022-09-27T00:38:31;155.73;;;84.28;;
21802;SDS011;18591;47.080;22.214;2022-09-27T00:40:33;103.90;;;61.63;;
21802;SDS011;18591;47.080;22.214;2022-09-27T00:42:36;120.88;;;75.30;;
21802;SDS011;18591;47.080;22.214;2022-09-27T00:46:45;127.15;;;84.78;;
21802;SDS011;18591;47.080;22.214;2022-09-27T00:48:52;100.20;;;66.40;;
21802;SDS011;18591;47.080;22.214;2022-09-27T00:51:03;88.63;;;57.90;;
21802;SDS011;18591;47.080;22.214;2022-09-27T00:55:25;85.63;;;58.53;;
21802;SDS011;18591;47.080;22.214;2022-09-27T00:57:50;62.97;;;45.00;;
21802;SDS011;18591;47.080;22.214;2022-09-27T00:59:57;58.53;;;43.65;;
21802;SDS011;18591;47.080;22.214;2022-09-27T01:02:03;57.35;;;43.75;;
21802;SDS011;18591;47.080;22.214;2022-09-27T01:04:09;47.58;;;36.85;;
21802;SDS011;18591;47.080;22.214;2022-09-27T01:06:14;54.80;;;38.90;;
21802;SDS011;18591;47.080;22.214;2022-09-27T01:08:18;53.45;;;39.22;;
21802;SDS011;18591;47.080;22.214;2022-09-27T01:10:20;72.40;;;49.05;;
21802;SDS011;18591;47.080;22.214;2022-09-27T01:19:58;68.30;;;51.08;;
21802;SDS011;18591;47.080;22.214;2022-09-27T01:29:17;30.77;;;26.27;;
21802;SDS011;18591;47.080;22.214;2022-09-27T01:31:46;30.40;;;27.08;;
21802;SDS011;18591;47.080;22.214;2022-09-27T01:34:08;28.30;;;25.30;;
21802;SDS011;18591;47.080;22.214;2022-09-27T01:36:26;26.30;;;23.40;;
21802;SDS011;18591;47.080;22.214;2022-09-27T01:46:18;25.15;;;22.52;;
21802;SDS011;18591;47.080;22.214;2022-09-27T01:48:46;24.92;;;22.33;;
21802;SDS011;18591;47.080;22.214;2022-09-27T01:51:03;24.92;;;22.40;;
21802;SDS011;18591;47.080;22.214;2022-09-27T01:53:29;22.60;;;19.83;;
21802;SDS011;18591;47.080;22.214;2022-09-27T01:56:05;23.10;;;20.73;;
21802;SDS011;18591;47.080;22.214;2022-09-27T01:58:31;23.35;;;20.08;;
21802;SDS011;18591;47.080;22.214;2022-09-27T02:00:38;23.65;;;21.25;;
21802;SDS011;18591;47.080;22.214;2022-09-27T02:02:48;22.73;;;20.13;;
21802;SDS011;18591;47.080;22.214;2022-09-27T02:05:06;22.70;;;20.10;;
21802;SDS011;18591;47.080;22.214;2022-09-27T02:07:16;22.92;;;20.55;;
21802;SDS011;18591;47.080;22.214;2022-09-27T02:09:44;22.95;;;19.95;;
21802;SDS011;18591;47.080;22.214;2022-09-27T02:11:56;22.33;;;20.02;;
21802;SDS011;18591;47.080;22.214;2022-09-27T02:14:17;21.83;;;19.13;;
21802;SDS011;18591;47.080;22.214;2022-09-27T02:16:37;20.67;;;18.45;;
21802;SDS011;18591;47.080;22.214;2022-09-27T02:21:14;20.00;;;17.95;;
21802;SDS011;18591;47.080;22.214;2022-09-27T02:23:22;20.77;;;17.98;;
21802;SDS011;18591;47.080;22.214;2022-09-27T02:27:53;22.08;;;19.67;;
21802;SDS011;18591;47.080;22.214;2022-09-27T02:30:01;21.98;;;19.73;;
21802;SDS011;18591;47.080;22.214;2022-09-27T02:32:09;19.42;;;17.35;;
21802;SDS011;18591;47.080;22.214;2022-09-27T02:34:13;20.40;;;18.20;;
21802;SDS011;18591;47.080;22.214;2022-09-27T02:36:16;22.65;;;20.23;;
21802;SDS011;18591;47.080;22.214;2022-09-27T02:38:20;21.40;;;19.17;;
21802;SDS011;18591;47.080;22.214;2022-09-27T02:40:23;26.70;;;23.63;;
21802;SDS011;18591;47.080;22.214;2022-09-27T02:42:30;22.40;;;20.02;;
21802;SDS011;18591;47.080;22.214;2022-09-27T02:44:34;22.02;;;19.73;;
21802;SDS011;18591;47.080;22.214;2022-09-27T03:00:19;25.23;;;21.58;;
21802;SDS011;18591;47.080;22.214;2022-09-27T03:05:08;34.80;;;28.25;;
21802;SDS011;18591;47.080;22.214;2022-09-27T03:07:16;33.97;;;28.35;;
21802;SDS011;18591;47.080;22.214;2022-09-27T03:09:20;36.28;;;29.95;;
21802;SDS011;18591;47.080;22.214;2022-09-27T03:11:24;30.65;;;27.35;;
21802;SDS011;18591;47.080;22.214;2022-09-27T03:13:29;35.22;;;28.85;;
21802;SDS011;18591;47.080;22.214;2022-09-27T03:15:37;34.40;;;28.25;;
21802;SDS011;18591;47.080;22.214;2022-09-27T03:17:39;30.75;;;24.10;;
21802;SDS011;18591;47.080;22.214;2022-09-27T03:20:00;24.52;;;21.70;;
21802;SDS011;18591;47.080;22.214;2022-09-27T03:22:25;24.13;;;21.58;;
21802;SDS011;18591;47.080;22.214;2022-09-27T03:24:28;25.50;;;22.80;;
21802;SDS011;18591;47.080;22.214;2022-09-27T03:26:33;40.85;;;32.28;;
21802;SDS011;18591;47.080;22.214;2022-09-27T03:28:36;42.25;;;36.15;;
21802;SDS011;18591;47.080;22.214;2022-09-27T03:30:38;40.40;;;35.72;;
21802;SDS011;18591;47.080;22.214;2022-09-27T03:35:48;25.33;;;22.60;;
21802;SDS011;18591;47.080;22.214;2022-09-27T03:37:51;23.48;;;20.80;;
21802;SDS011;18591;47.080;22.214;2022-09-27T03:39:54;23.33;;;20.15;;
21802;SDS011;18591;47.080;22.214;2022-09-27T03:41:56;20.77;;;18.60;;
21802;SDS011;18591;47.080;22.214;2022-09-27T03:43:59;21.77;;;17.77;;
21802;SDS011;18591;47.080;22.214;2022-09-27T03:46:01;21.88;;;17.90;;
21802;SDS011;18591;47.080;22.214;2022-09-27T03:48:04;18.50;;;16.60;;
21802;SDS011;18591;47.080;22.214;2022-09-27T03:50:08;17.27;;;15.57;;
21802;SDS011;18591;47.080;22.214;2022-09-27T03:52:12;18.85;;;16.85;;
21802;SDS011;18591;47.080;22.214;2022-09-27T03:54:15;17.75;;;15.95;;
21802;SDS011;18591;47.080;22.214;2022-09-27T03:56:18;17.85;;;16.10;;
21802;SDS011;18591;47.080;22.214;2022-09-27T03:58:20;18.88;;;16.88;;
21802;SDS011;18591;47.080;22.214;2022-09-27T04:00:22;22.13;;;19.95;;
21802;SDS011;18591;47.080;22.214;2022-09-27T04:02:26;19.88;;;17.83;;
21802;SDS011;18591;47.080;22.214;2022-09-27T04:04:48;18.50;;;16.20;;
21802;SDS011;18591;47.080;22.214;2022-09-27T04:06:50;19.70;;;17.80;;
21802;SDS011;18591;47.080;22.214;2022-09-27T04:08:53;18.63;;;16.65;;
21802;SDS011;18591;47.080;22.214;2022-09-27T04:10:59;19.88;;;17.55;;
21802;SDS011;18591;47.080;22.214;2022-09-27T04:13:02;20.30;;;18.20;;
21802;SDS011;18591;47.080;22.214;2022-09-27T04:15:10;19.08;;;17.15;;
21802;SDS011;18591;47.080;22.214;2022-09-27T04:17:24;16.52;;;14.80;;
21802;SDS011;18591;47.080;22.214;2022-09-27T04:20:06;19.83;;;17.83;;
21802;SDS011;18591;47.080;22.214;2022-09-27T04:22:11;20.88;;;18.33;;
21802;SDS011;18591;47.080;22.214;2022-09-27T04:24:14;20.92;;;18.83;;
21802;SDS011;18591;47.080;22.214;2022-09-27T04:26:28;21.75;;;19.50;;
21802;SDS011;18591;47.080;22.214;2022-09-27T04:28:43;23.92;;;20.50;;
21802;SDS011;18591;47.080;22.214;2022-09-27T04:30:53;22.10;;;19.80;;
21802;SDS011;18591;47.080;22.214;2022-09-27T04:33:20;22.27;;;19.92;;
21802;SDS011;18591;47.080;22.214;2022-09-27T04:35:43;24.42;;;21.40;;
21802;SDS011;18591;47.080;22.214;2022-09-27T04:38:04;23.90;;;21.40;;
21802;SDS011;18591;47.080;22.214;2022-09-27T04:40:07;23.17;;;20.77;;
21802;SDS011;18591;47.080;22.214;2022-09-27T04:42:10;22.98;;;20.58;;
21802;SDS011;18591;47.080;22.214;2022-09-27T04:44:12;23.77;;;20.33;;
21802;SDS011;18591;47.080;22.214;2022-09-27T04:46:18;22.75;;;20.38;;
21802;SDS011;18591;47.080;22.214;2022-09-27T04:48:22;23.42;;;20.35;;
21802;SDS011;18591;47.080;22.214;2022-09-27T04:50:26;23.60;;;21.13;;
21802;SDS011;18591;47.080;22.214;2022-09-27T04:52:36;22.95;;;20.63;;
21802;SDS011;18591;47.080;22.214;2022-09-27T04:54:39;21.73;;;19.40;;
21802;SDS011;18591;47.080;22.214;2022-09-27T04:56:45;22.98;;;20.60;;
21802;SDS011;18591;47.080;22.214;2022-09-27T04:58:55;24.10;;;21.38;;
21802;SDS011;18591;47.080;22.214;2022-09-27T05:00:59;22.88;;;20.45;;
21802;SDS011;18591;47.080;22.214;2022-09-27T05:03:23;22.50;;;20.15;;
21802;SDS011;18591;47.080;22.214;2022-09-27T05:05:29;21.50;;;19.25;;
21802;SDS011;18591;47.080;22.214;2022-09-27T05:07:32;21.52;;;19.23;;
21802;SDS011;18591;47.080;22.214;2022-09-27T05:09:41;22.52;;;20.25;;
21802;SDS011;18591;47.080;22.214;2022-09-27T05:11:44;22.27;;;19.88;;
21802;SDS011;18591;47.080;22.214;2022-09-27T05:13:49;22.13;;;19.83;;
21802;SDS011;18591;47.080;22.214;2022-09-27T05:15:52;22.23;;;18.88;;
21802;SDS011;18591;47.080;22.214;2022-09-27T05:18:14;20.58;;;18.17;;
21802;SDS011;18591;47.080;22.214;2022-09-27T05:20:36;19.20;;;17.30;;
21802;SDS011;18591;47.080;22.214;2022-09-27T05:27:01;19.20;;;17.20;;
21802;SDS011;18591;47.080;22.214;2022-09-27T05:29:04;18.48;;;16.67;;
21802;SDS011;18591;47.080;22.214;2022-09-27T05:31:07;19.73;;;17.73;;
21802;SDS011;18591;47.080;22.214;2022-09-27T05:33:10;19.10;;;17.20;;
21802;SDS011;18591;47.080;22.214;2022-09-27T05:35:21;19.83;;;17.83;;
21802;SDS011;18591;47.080;22.214;2022-09-27T05:37:23;25.77;;;22.60;;
21802;SDS011;18591;47.080;22.214;2022-09-27T05:39:25;22.05;;;19.83;;
21802;SDS011;18591;47.080;22.214;2022-09-27T05:41:31;30.13;;;25.05;;
21802;SDS011;18591;47.080;22.214;2022-09-27T05:43:36;30.60;;;26.05;;
21802;SDS011;18591;47.080;22.214;2022-09-27T05:45:38;24.35;;;21.85;;
21802;SDS011;18591;47.080;22.214;2022-09-27T05:47:41;21.02;;;18.73;;
21802;SDS011;18591;47.080;22.214;2022-09-27T05:49:43;21.73;;;19.52;;
21802;SDS011;18591;47.080;22.214;2022-09-27T05:51:46;24.33;;;21.83;;
21802;SDS011;18591;47.080;22.214;2022-09-27T05:53:48;25.95;;;21.20;;
21802;SDS011;18591;47.080;22.214;2022-09-27T05:56:01;23.58;;;21.13;;
21802;SDS011;18591;47.080;22.214;2022-09-27T05:58:25;26.40;;;23.55;;
21802;SDS011;18591;47.080;22.214;2022-09-27T06:00:42;27.58;;;24.75;;
21802;SDS011;18591;47.080;22.214;2022-09-27T06:03:09;33.78;;;26.83;;
21802;SDS011;18591;47.080;22.214;2022-09-27T06:05:34;31.92;;;26.05;;
21802;SDS011;18591;47.080;22.214;2022-09-27T06:08:09;29.00;;;23.70;;
21802;SDS011;18591;47.080;22.214;2022-09-27T06:10:20;32.33;;;27.55;;
21802;SDS011;18591;47.080;22.214;2022-09-27T06:12:22;32.28;;;26.95;;
21802;SDS011;18591;47.080;22.214;2022-09-27T06:14:24;29.20;;;24.80;;
21802;SDS011;18591;47.080;22.214;2022-09-27T06:16:32;27.65;;;23.75;;
21802;SDS011;18591;47.080;22.214;2022-09-27T06:18:35;29.48;;;24.58;;
21802;SDS011;18591;47.080;22.214;2022-09-27T06:20:38;26.30;;;23.05;;
21802;SDS011;18591;47.080;22.214;2022-09-27T06:22:43;27.70;;;22.92;;
21802;SDS011;18591;47.080;22.214;2022-09-27T06:24:47;26.27;;;22.60;;
21802;SDS011;18591;47.080;22.214;2022-09-27T06:26:54;26.60;;;21.75;;
21802;SDS011;18591;47.080;22.214;2022-09-27T06:29:10;24.30;;;21.63;;
21802;SDS011;18591;47.080;22.214;2022-09-27T06:31:18;31.48;;;24.65;;
21802;SDS011;18591;47.080;22.214;2022-09-27T06:33:23;29.83;;;24.75;;
21802;SDS011;18591;47.080;22.214;2022-09-27T06:35:28;27.50;;;22.42;;
21802;SDS011;18591;47.080;22.214;2022-09-27T06:37:32;26.25;;;22.25;;
21802;SDS011;18591;47.080;22.214;2022-09-27T06:39:34;25.33;;;20.40;;
21802;SDS011;18591;47.080;22.214;2022-09-27T06:44:44;32.65;;;25.85;;
21802;SDS011;18591;47.080;22.214;2022-09-27T06:47:16;30.85;;;25.48;;
21802;SDS011;18591;47.080;22.214;2022-09-27T06:49:25;28.85;;;23.02;;
21802;SDS011;18591;47.080;22.214;2022-09-27T06:51:30;29.90;;;22.02;;
21802;SDS011;18591;47.080;22.214;2022-09-27T06:53:33;23.02;;;19.98;;
21802;SDS011;18591;47.080;22.214;2022-09-27T06:55:36;23.83;;;20.33;;
21802;SDS011;18591;47.080;22.214;2022-09-27T06:57:39;27.17;;;22.63;;
21802;SDS011;18591;47.080;22.214;2022-09-27T06:59:59;27.73;;;23.77;;
21802;SDS011;18591;47.080;22.214;2022-09-27T07:02:39;30.58;;;24.10;;
21802;SDS011;18591;47.080;22.214;2022-09-27T07:05:01;27.08;;;22.77;;
21802;SDS011;18591;47.080;22.214;2022-09-27T07:07:31;29.25;;;24.33;;
21802;SDS011;18591;47.080;22.214;2022-09-27T07:09:33;28.20;;;23.85;;
21802;SDS011;18591;47.080;22.214;2022-09-27T07:11:36;29.20;;;23.77;;
21802;SDS011;18591;47.080;22.214;2022-09-27T07:13:39;26.05;;;21.98;;
21802;SDS011;18591;47.080;22.214;2022-09-27T07:15:44;26.83;;;20.52;;
21802;SDS011;18591;47.080;22.214;2022-09-27T07:17:55;21.95;;;19.17;;
21802;SDS011;18591;47.080;22.214;2022-09-27T07:20:02;20.85;;;17.83;;
21802;SDS011;18591;47.080;22.214;2022-09-27T07:22:07;26.55;;;19.42;;
21802;SDS011;18591;47.080;22.214;2022-09-27T07:24:14;22.55;;;18.42;;
21802;SDS011;18591;47.080;22.214;2022-09-27T07:26:16;19.27;;;16.20;;
21802;SDS011;18591;47.080;22.214;2022-09-27T07:28:19;18.05;;;15.45;;
21802;SDS011;18591;47.080;22.214;2022-09-27T07:30:24;15.60;;;13.63;;
21802;SDS011;18591;47.080;22.214;2022-09-27T07:32:26;15.68;;;13.27;;
21802;SDS011;18591;47.080;22.214;2022-09-27T07:34:34;16.00;;;13.38;;
21802;SDS011;18591;47.080;22.214;2022-09-27T07:36:37;13.30;;;12.00;;
21802;SDS011;18591;47.080;22.214;2022-09-27T07:38:40;16.88;;;13.60;;
21802;SDS011;18591;47.080;22.214;2022-09-27T07:40:43;18.67;;;15.13;;
21802;SDS011;18591;47.080;22.214;2022-09-27T07:42:45;14.27;;;12.77;;
21802;SDS011;18591;47.080;22.214;2022-09-27T07:44:48;12.93;;;11.55;;
21802;SDS011;18591;47.080;22.214;2022-09-27T07:46:56;12.45;;;10.90;;
21802;SDS011;18591;47.080;22.214;2022-09-27T07:49:18;10.80;;;9.70;;
21802;SDS011;18591;47.080;22.214;2022-09-27T07:51:48;10.38;;;9.27;;
21802;SDS011;18591;47.080;22.214;2022-09-27T07:54:20;10.85;;;9.07;;
21802;SDS011;18591;47.080;22.214;2022-09-27T07:56:38;10.85;;;8.93;;
21802;SDS011;18591;47.080;22.214;2022-09-27T07:58:43;9.90;;;8.88;;
21802;SDS011;18591;47.080;22.214;2022-09-27T08:00:45;11.35;;;9.57;;
21802;SDS011;18591;47.080;22.214;2022-09-27T08:02:49;9.70;;;8.20;;
21802;SDS011;18591;47.080;22.214;2022-09-27T08:04:51;10.88;;;8.10;;
21802;SDS011;18591;47.080;22.214;2022-09-27T08:06:55;9.77;;;8.38;;
21802;SDS011;18591;47.080;22.214;2022-09-27T08:08:58;9.43;;;8.52;;
21802;SDS011;18591;47.080;22.214;2022-09-27T08:11:12;11.15;;;9.18;;
21802;SDS011;18591;47.080;22.214;2022-09-27T08:13:17;8.10;;;7.30;;
21802;SDS011;18591;47.080;22.214;2022-09-27T08:15:23;7.90;;;7.20;;
21802;SDS011;18591;47.080;22.214;2022-09-27T08:17:27;8.65;;;7.85;;
21802;SDS011;18591;47.080;22.214;2022-09-27T08:19:42;9.85;;;7.70;;
21802;SDS011;18591;47.080;22.214;2022-09-27T08:21:59;9.38;;;7.32;;
21802;SDS011;18591;47.080;22.214;2022-09-27T08:24:07;8.20;;;7.43;;
21802;SDS011;18591;47.080;22.214;2022-09-27T08:26:30;9.50;;;7.15;;
21802;SDS011;18591;47.080;22.214;2022-09-27T08:28:46;8.75;;;7.63;;
21802;SDS011;18591;47.080;22.214;2022-09-27T08:30:59;8.50;;;7.70;;
21802;SDS011;18591;47.080;22.214;2022-09-27T08:33:02;8.63;;;7.80;;
21802;SDS011;18591;47.080;22.214;2022-09-27T08:35:05;9.32;;;8.00;;
21802;SDS011;18591;47.080;22.214;2022-09-27T08:37:08;9.05;;;8.25;;
21802;SDS011;18591;47.080;22.214;2022-09-27T08:39:12;9.00;;;7.80;;
21802;SDS011;18591;47.080;22.214;2022-09-27T08:43:44;7.78;;;7.03;;
21802;SDS011;18591;47.080;22.214;2022-09-27T08:48:42;7.72;;;6.97;;
21802;SDS011;18591;47.080;22.214;2022-09-27T08:50:48;7.80;;;6.57;;
21802;SDS011;18591;47.080;22.214;2022-09-27T08:52:59;8.25;;;6.88;;
21802;SDS011;18591;47.080;22.214;2022-09-27T08:55:09;6.45;;;5.85;;
21802;SDS011;18591;47.080;22.214;2022-09-27T08:57:23;6.75;;;6.15;;
21802;SDS011;18591;47.080;22.214;2022-09-27T08:59:27;6.90;;;6.25;;
21802;SDS011;18591;47.080;22.214;2022-09-27T09:01:35;7.47;;;6.47;;
21802;SDS011;18591;47.080;22.214;2022-09-27T09:03:49;6.88;;;6.18;;
21802;SDS011;18591;47.080;22.214;2022-09-27T09:08:33;6.57;;;5.88;;
21802;SDS011;18591;47.080;22.214;2022-09-27T09:10:54;6.20;;;5.60;;
21802;SDS011;18591;47.080;22.214;2022-09-27T09:21:18;6.70;;;5.63;;
21802;SDS011;18591;47.080;22.214;2022-09-27T09:33:43;7.28;;;5.70;;
21802;SDS011;18591;47.080;22.214;2022-09-27T09:36:01;7.35;;;6.00;;
21802;SDS011;18591;47.080;22.214;2022-09-27T09:38:20;6.45;;;5.85;;
21802;SDS011;18591;47.080;22.214;2022-09-27T09:40:55;7.80;;;5.05;;
21802;SDS011;18591;47.080;22.214;2022-09-27T09:45:21;5.57;;;5.07;;
21802;SDS011;18591;47.080;22.214;2022-09-27T09:49:42;5.05;;;4.55;;
21802;SDS011;18591;47.080;22.214;2022-09-27T09:51:51;5.20;;;4.80;;
21802;SDS011;18591;47.080;22.214;2022-09-27T09:55:01;6.47;;;5.88;;
21802;SDS011;18591;47.080;22.214;2022-09-27T09:59:13;32.67;;;16.60;;
21802;SDS011;18591;47.080;22.214;2022-09-27T10:01:25;41.63;;;20.80;;
21802;SDS011;18591;47.080;22.214;2022-09-27T10:03:39;26.45;;;14.32;;
21802;SDS011;18591;47.080;22.214;2022-09-27T10:05:42;11.00;;;7.63;;
21802;SDS011;18591;47.080;22.214;2022-09-27T10:07:46;7.97;;;5.78;;
21802;SDS011;18591;47.080;22.214;2022-09-27T10:09:54;6.35;;;5.25;;
21802;SDS011;18591;47.080;22.214;2022-09-27T10:12:19;5.30;;;4.32;;
21802;SDS011;18591;47.080;22.214;2022-09-27T10:14:24;4.97;;;4.57;;
21802;SDS011;18591;47.080;22.214;2022-09-27T10:16:35;5.95;;;4.72;;
21802;SDS011;18591;47.080;22.214;2022-09-27T10:18:40;9.40;;;7.13;;
21802;SDS011;18591;47.080;22.214;2022-09-27T10:20:54;8.82;;;6.32;;
21802;SDS011;18591;47.080;22.214;2022-09-27T10:23:03;7.53;;;5.38;;
21802;SDS011;18591;47.080;22.214;2022-09-27T10:25:51;8.10;;;6.38;;
21802;SDS011;18591;47.080;22.214;2022-09-27T10:28:57;15.20;;;10.32;;
21802;SDS011;18591;47.080;22.214;2022-09-27T10:30:39;23.15;;;14.60;;
21802;SDS011;18591;47.080;22.214;2022-09-27T10:32:45;35.90;;;20.33;;
21802;SDS011;18591;47.080;22.214;2022-09-27T10:37:37;51.50;;;27.05;;
21802;SDS011;18591;47.080;22.214;2022-09-27T10:39:48;64.18;;;31.52;;
21802;SDS011;18591;47.080;22.214;2022-09-27T10:41:52;71.28;;;33.65;;
21802;SDS011;18591;47.080;22.214;2022-09-27T10:49:06;27.95;;;15.27;;
21802;SDS011;18591;47.080;22.214;2022-09-27T10:51:32;18.25;;;10.27;;
21802;SDS011;18591;47.080;22.214;2022-09-27T10:53:37;15.38;;;9.75;;
21802;SDS011;18591;47.080;22.214;2022-09-27T10:55:52;9.07;;;6.10;;
21802;SDS011;18591;47.080;22.214;2022-09-27T10:57:54;5.78;;;4.72;;
21802;SDS011;18591;47.080;22.214;2022-09-27T10:59:59;4.55;;;4.15;;
21802;SDS011;18591;47.080;22.214;2022-09-27T11:02:21;4.95;;;4.45;;
21802;SDS011;18591;47.080;22.214;2022-09-27T11:04:37;9.98;;;6.82;;
21802;SDS011;18591;47.080;22.214;2022-09-27T11:06:41;25.98;;;14.05;;
21802;SDS011;18591;47.080;22.214;2022-09-27T11:08:44;30.38;;;16.67;;
21802;SDS011;18591;47.080;22.214;2022-09-27T11:15:13;42.53;;;20.83;;
21802;SDS011;18591;47.080;22.214;2022-09-27T11:20:03;20.65;;;11.07;;
21802;SDS011;18591;47.080;22.214;2022-09-27T11:37:11;25.38;;;15.85;;
21802;SDS011;18591;47.080;22.214;2022-09-27T11:39:31;26.92;;;16.67;;
21802;SDS011;18591;47.080;22.214;2022-09-27T11:46:30;45.75;;;28.45;;
21802;SDS011;18591;47.080;22.214;2022-09-27T11:56:24;42.33;;;28.45;;
21802;SDS011;18591;47.080;22.214;2022-09-27T12:00:55;22.90;;;14.05;;
21802;SDS011;18591;47.080;22.214;2022-09-27T12:10:49;7.30;;;6.60;;
21802;SDS011;18591;47.080;22.214;2022-09-27T12:12:55;8.35;;;5.78;;
21802;SDS011;18591;47.080;22.214;2022-09-27T12:15:10;4.15;;;3.83;;
21802;SDS011;18591;47.080;22.214;2022-09-27T12:17:20;4.25;;;3.85;;
21802;SDS011;18591;47.080;22.214;2022-09-27T12:19:28;3.30;;;3.00;;
21802;SDS011;18591;47.080;22.214;2022-09-27T12:21:39;4.55;;;3.28;;
21802;SDS011;18591;47.080;22.214;2022-09-27T12:23:49;10.63;;;6.57;;
21802;SDS011;18591;47.080;22.214;2022-09-27T12:36:05;3.53;;;3.22;;
21802;SDS011;18591;47.080;22.214;2022-09-27T12:38:14;8.43;;;5.60;;
21802;SDS011;18591;47.080;22.214;2022-09-27T12:40:33;10.60;;;7.68;;
21802;SDS011;18591;47.080;22.214;2022-09-27T12:43:48;9.05;;;7.03;;
21802;SDS011;18591;47.080;22.214;2022-09-27T12:48:23;15.77;;;11.48;;
21802;SDS011;18591;47.080;22.214;2022-09-27T12:50:33;15.93;;;11.45;;
21802;SDS011;18591;47.080;22.214;2022-09-27T12:52:46;15.50;;;11.98;;
21802;SDS011;18591;47.080;22.214;2022-09-27T13:04:45;50.30;;;29.92;;
21802;SDS011;18591;47.080;22.214;2022-09-27T13:13:53;20.17;;;14.05;;
21802;SDS011;18591;47.080;22.214;2022-09-27T13:15:59;18.55;;;11.75;;
21802;SDS011;18591;47.080;22.214;2022-09-27T13:20:39;14.88;;;11.55;;
21802;SDS011;18591;47.080;22.214;2022-09-27T13:22:57;12.75;;;9.88;;
21802;SDS011;18591;47.080;22.214;2022-09-27T13:33:20;14.90;;;9.50;;
21802;SDS011;18591;47.080;22.214;2022-09-27T13:42:37;8.35;;;7.45;;
21802;SDS011;18591;47.080;22.214;2022-09-27T13:47:35;8.48;;;7.20;;
21802;SDS011;18591;47.080;22.214;2022-09-27T13:49:50;8.95;;;6.47;;
21802;SDS011;18591;47.080;22.214;2022-09-27T13:52:34;6.80;;;5.72;;
21802;SDS011;18591;47.080;22.214;2022-09-27T13:56:58;6.57;;;5.88;;
21802;SDS011;18591;47.080;22.214;2022-09-27T13:59:07;6.70;;;6.00;;
21802;SDS011;18591;47.080;22.214;2022-09-27T14:01:39;5.95;;;5.18;;
21802;SDS011;18591;47.080;22.214;2022-09-27T14:03:51;6.32;;;5.72;;
21802;SDS011;18591;47.080;22.214;2022-09-27T14:06:05;6.57;;;5.15;;
21802;SDS011;18591;47.080;22.214;2022-09-27T14:10:43;5.50;;;4.50;;
21802;SDS011;18591;47.080;22.214;2022-09-27T14:12:47;5.50;;;4.97;;
21802;SDS011;18591;47.080;22.214;2022-09-27T14:14:53;5.03;;;4.53;;
21802;SDS011;18591;47.080;22.214;2022-09-27T14:16:57;4.90;;;4.50;;
21802;SDS011;18591;47.080;22.214;2022-09-27T14:19:01;5.55;;;5.05;;
21802;SDS011;18591;47.080;22.214;2022-09-27T14:21:25;5.93;;;5.28;;
21802;SDS011;18591;47.080;22.214;2022-09-27T14:23:49;9.85;;;6.38;;
21802;SDS011;18591;47.080;22.214;2022-09-27T14:25:53;7.88;;;6.18;;
21802;SDS011;18591;47.080;22.214;2022-09-27T14:27:58;7.32;;;6.07;;
21802;SDS011;18591;47.080;22.214;2022-09-27T14:30:11;9.23;;;7.32;;
21802;SDS011;18591;47.080;22.214;2022-09-27T14:32:22;6.60;;;5.93;;
21802;SDS011;18591;47.080;22.214;2022-09-27T14:34:32;6.20;;;5.60;;
21802;SDS011;18591;47.080;22.214;2022-09-27T14:36:35;6.47;;;5.88;;
21802;SDS011;18591;47.080;22.214;2022-09-27T14:39:00;6.00;;;5.43;;
21802;SDS011;18591;47.080;22.214;2022-09-27T14:41:08;5.45;;;4.93;;
21802;SDS011;18591;47.080;22.214;2022-09-27T14:43:16;5.82;;;5.22;;
21802;SDS011;18591;47.080;22.214;2022-09-27T14:45:21;5.85;;;5.13;;
21802;SDS011;18591;47.080;22.214;2022-09-27T14:47:28;6.10;;;5.05;;
21802;SDS011;18591;47.080;22.214;2022-09-27T14:49:31;5.45;;;4.95;;
21802;SDS011;18591;47.080;22.214;2022-09-27T14:51:33;5.22;;;4.78;;
21802;SDS011;18591;47.080;22.214;2022-09-27T14:53:46;4.55;;;4.15;;
21802;SDS011;18591;47.080;22.214;2022-09-27T14:55:51;5.68;;;5.07;;
21802;SDS011;18591;47.080;22.214;2022-09-27T14:57:57;6.50;;;5.90;;
21802;SDS011;18591;47.080;22.214;2022-09-27T15:00:09;6.18;;;5.57;;
21802;SDS011;18591;47.080;22.214;2022-09-27T15:02:19;6.38;;;5.78;;
21802;SDS011;18591;47.080;22.214;2022-09-27T15:04:28;8.93;;;6.25;;
21802;SDS011;18591;47.080;22.214;2022-09-27T15:06:35;6.70;;;5.78;;
21802;SDS011;18591;47.080;22.214;2022-09-27T15:08:38;6.63;;;5.90;;
21802;SDS011;18591;47.080;22.214;2022-09-27T15:10:41;5.93;;;5.38;;
21802;SDS011;18591;47.080;22.214;2022-09-27T15:12:47;6.10;;;5.50;;
21802;SDS011;18591;47.080;22.214;2022-09-27T15:14:53;6.32;;;5.72;;
21802;SDS011;18591;47.080;22.214;2022-09-27T15:16:58;7.13;;;6.25;;
21802;SDS011;18591;47.080;22.214;2022-09-27T15:19:13;6.00;;;5.40;;
21802;SDS011;18591;47.080;22.214;2022-09-27T15:21:27;9.20;;;6.78;;
21802;SDS011;18591;47.080;22.214;2022-09-27T15:23:39;6.30;;;5.70;;
21802;SDS011;18591;47.080;22.214;2022-09-27T15:25:43;7.90;;;5.95;;
21802;SDS011;18591;47.080;22.214;2022-09-27T15:30:15;6.18;;;5.57;;
21802;SDS011;18591;47.080;22.214;2022-09-27T15:32:33;6.30;;;5.70;;
21802;SDS011;18591;47.080;22.214;2022-09-27T15:34:35;5.82;;;5.32;;
21802;SDS011;18591;47.080;22.214;2022-09-27T15:38:50;6.38;;;4.70;;
21802;SDS011;18591;47.080;22.214;2022-09-27T15:41:11;5.90;;;5.28;;
21802;SDS011;18591;47.080;22.214;2022-09-27T15:45:47;4.75;;;4.32;;
21802;SDS011;18591;47.080;22.214;2022-09-27T15:47:52;5.32;;;4.78;;
21802;SDS011;18591;47.080;22.214;2022-09-27T15:49:54;4.70;;;4.30;;
21802;SDS011;18591;47.080;22.214;2022-09-27T15:51:57;5.15;;;4.65;;
21802;SDS011;18591;47.080;22.214;2022-09-27T15:54:01;5.47;;;4.68;;
21802;SDS011;18591;47.080;22.214;2022-09-27T15:56:04;5.53;;;5.03;;
21802;SDS011;18591;47.080;22.214;2022-09-27T15:58:18;5.95;;;4.88;;
21802;SDS011;18591;47.080;22.214;2022-09-27T16:00:22;5.25;;;4.68;;